Time;durP1;ratioP1;P1;durP2;ratioP2;P2;SDS_P1;SDS_P2;PMS_P1;PMS_P2;Temp;Humidity;BMP_temperature;BMP_pressure;BME280_temperature;BME280_humidity;BME280_pressure;Samples;Min_cycle;Max_cycle;Signal;HPM_P1;HPM_P2
2022/07/23 00:00:17;;;;;;;;;;;;;;;23.62;76.74;97162.90;603444;235;68935;-72
2022/07/23 00:02:45;;;;;;;;;;;;;;;23.63;76.70;97158.36;603433;234;68531;-72
2022/07/23 00:05:12;;;;;;;;;;;;;;;23.62;76.71;97159.42;603418;235;62773;-72
2022/07/23 00:07:40;;;;;;;;;;;;;;;23.62;76.60;97157.53;603485;235;68581;-72
2022/07/23 00:10:08;;;;;;;;;;;;;;;23.63;76.70;97164.52;603420;235;68998;-72
2022/07/23 00:12:36;;;;;;;;;;;;;;;23.63;76.73;97164.52;603432;235;65014;-72
2022/07/23 00:15:04;;;;;;;;;;;;;;;23.62;76.68;97170.95;603432;235;66399;-72
2022/07/23 00:17:31;;;;;;;;;;;;;;;23.63;76.79;97169.88;603441;235;66720;-73
2022/07/23 00:19:59;;;;;;;;;;;;;;;23.62;76.72;97173.63;603457;235;62959;-72
2022/07/23 00:22:28;;;;;;;;;;;;;;;23.63;76.80;97171.77;603448;235;67373;-72
2022/07/23 00:24:57;;;;;;;;;;;;;;;23.63;76.84;97169.09;603419;235;68635;-72
2022/07/23 00:27:24;;;;;;;;;;;;;;;23.63;76.78;97163.72;603463;235;64874;-72
2022/07/23 00:29:52;;;;;;;;;;;;;;;23.63;76.94;97166.41;603408;235;68837;-72
2022/07/23 00:32:19;;;;;;;;;;;;;;;23.63;76.88;97163.72;603463;235;66333;-72
2022/07/23 00:34:47;;;;;;;;;;;;;;;23.63;76.86;97163.72;603465;235;65297;-72
2022/07/23 00:37:14;;;;;;;;;;;;;;;23.62;76.84;97159.42;603509;235;69255;-72
2022/07/23 00:39:42;;;;;;;;;;;;;;;23.62;76.89;97159.42;603497;235;68599;-73
2022/07/23 00:42:09;;;;;;;;;;;;;;;23.63;76.94;97161.04;603466;235;62923;-64
2022/07/23 00:44:37;;;;;;;;;;;;;;;23.63;76.86;97167.20;603503;235;68981;-64
2022/07/23 00:47:05;;;;;;;;;;;;;;;23.63;76.83;97167.20;603552;235;68578;-64
2022/07/23 00:49:33;;;;;;;;;;;;;;;23.63;76.87;97164.52;603504;235;62957;-64
2022/07/23 00:52:02;;;;;;;;;;;;;;;23.64;76.76;97165.31;603514;235;68630;-65
2022/07/23 00:54:30;;;;;;;;;;;;;;;23.64;76.96;97159.95;603489;235;68504;-65
2022/07/23 00:56:57;;;;;;;;;;;;;;;23.63;76.95;97164.52;602021;234;65205;-64
2022/07/23 00:59:25;;;;;;;;;;;;;;;23.64;77.00;97154.58;601803;235;66310;-65
2022/07/23 01:01:52;;;;;;;;;;;;;;;23.63;77.02;97152.99;601752;235;66348;-65
2022/07/23 01:04:20;;;;;;;;;;;;;;;23.64;76.96;97155.38;601761;235;65067;-65
2022/07/23 01:06:48;;;;;;;;;;;;;;;23.65;76.98;97164.22;601780;235;69442;-64
2022/07/23 01:09:15;;;;;;;;;;;;;;;23.63;76.91;97153.78;601755;235;66360;-65
2022/07/23 01:11:43;;;;;;;;;;;;;;;23.63;77.12;97161.84;601784;235;63768;-65
2022/07/23 01:14:13;;;;;;;;;;;;;;;23.64;77.03;97149.22;601761;235;66198;-65
2022/07/23 01:16:42;;;;;;;;;;;;;;;23.63;76.99;97148.42;601626;234;68796;-64
2022/07/23 01:19:10;;;;;;;;;;;;;;;23.63;76.92;97151.10;601750;235;65072;-64
2022/07/23 01:21:40;;;;;;;;;;;;;;;23.63;76.87;97150.31;601778;235;68907;-64
2022/07/23 01:24:08;;;;;;;;;;;;;;;23.63;76.86;97148.42;601788;235;68921;-64
2022/07/23 01:26:38;;;;;;;;;;;;;;;23.64;76.94;97141.16;601892;234;40340;-64
2022/07/23 01:29:06;;;;;;;;;;;;;;;23.64;77.09;97143.84;601756;235;68641;-64
2022/07/23 01:31:34;;;;;;;;;;;;;;;23.63;76.96;97140.38;601765;235;68662;-64
2022/07/23 01:34:01;;;;;;;;;;;;;;;23.63;76.91;97143.05;601757;235;62633;-64
2022/07/23 01:36:29;;;;;;;;;;;;;;;23.64;76.82;97144.64;601747;235;69325;-64
2022/07/23 01:38:57;;;;;;;;;;;;;;;23.62;76.96;97136.07;601814;235;69454;-72
2022/07/23 01:41:24;;;;;;;;;;;;;;;23.64;76.93;97138.48;601786;235;63734;-72
2022/07/23 01:43:52;;;;;;;;;;;;;;;23.64;76.94;97138.48;601764;235;68708;-72
2022/07/23 01:46:23;;;;;;;;;;;;;;;23.64;76.95;97135.80;601769;235;69054;-72
2022/07/23 01:48:51;;;;;;;;;;;;;;;23.63;76.99;97137.69;601664;235;66245;-72
2022/07/23 01:51:36;;;;;;;;;;;;;;;23.64;77.02;97139.28;601835;235;44024;-72
2022/07/23 01:54:08;;;;;;;;;;;;;;;23.64;76.91;97133.91;601753;234;47186;-72
2022/07/23 01:56:36;;;;;;;;;;;;;;;23.63;77.09;97131.53;601716;235;63026;-72
2022/07/23 01:59:04;;;;;;;;;;;;;;;23.63;77.08;97126.95;601718;235;66550;-72
2022/07/23 02:01:31;;;;;;;;;;;;;;;23.63;77.14;97126.16;601684;235;68707;-72
2022/07/23 02:03:59;;;;;;;;;;;;;;;23.61;77.13;97123.75;601760;235;65730;-72
2022/07/23 02:06:27;;;;;;;;;;;;;;;23.64;77.11;97127.75;601805;235;66352;-72
2022/07/23 02:08:55;;;;;;;;;;;;;;;23.64;77.10;97127.75;601752;235;68546;-72
2022/07/23 02:11:22;;;;;;;;;;;;;;;23.63;77.10;97126.95;601747;235;65085;-72
2022/07/23 02:13:50;;;;;;;;;;;;;;;23.63;77.05;97123.48;601688;235;66015;-72
2022/07/23 02:16:17;;;;;;;;;;;;;;;23.63;77.09;97126.95;601735;235;68643;-72
2022/07/23 02:18:46;;;;;;;;;;;;;;;23.64;77.11;97131.23;601767;235;65204;-72
2022/07/23 02:21:14;;;;;;;;;;;;;;;23.64;77.10;97127.75;601765;235;68600;-72
2022/07/23 02:23:42;;;;;;;;;;;;;;;23.64;77.24;97136.59;601760;235;68427;-72
2022/07/23 02:26:09;;;;;;;;;;;;;;;23.63;77.25;97129.64;601735;235;65639;-72
2022/07/23 02:28:37;;;;;;;;;;;;;;;23.64;77.20;97130.44;599937;235;69783;-72
2022/07/23 02:31:06;;;;;;;;;;;;;;;23.63;77.19;97134.21;601786;235;69115;-72
2022/07/23 02:33:34;;;;;;;;;;;;;;;23.64;77.18;97138.48;601704;235;62856;-73
2022/07/23 02:36:02;;;;;;;;;;;;;;;23.64;77.20;97138.48;601725;235;69300;-72
2022/07/23 02:38:29;;;;;;;;;;;;;;;23.62;77.36;97135.28;601704;235;69726;-72
2022/07/23 02:40:58;;;;;;;;;;;;;;;23.63;77.25;97140.38;601726;234;44186;-72
2022/07/23 02:43:27;;;;;;;;;;;;;;;23.63;77.43;97137.69;601726;235;66155;-72
2022/07/23 02:45:56;;;;;;;;;;;;;;;23.63;77.35;97137.69;601775;235;69102;-72
2022/07/23 02:48:24;;;;;;;;;;;;;;;23.64;77.32;97143.84;601697;235;63648;-72
2022/07/23 02:50:52;;;;;;;;;;;;;;;23.63;77.33;97135.00;601717;235;68833;-73
2022/07/23 02:53:21;;;;;;;;;;;;;;;23.63;77.30;97131.53;601719;234;47422;-72
2022/07/23 02:55:49;;;;;;;;;;;;;;;23.64;77.43;97139.28;601699;235;65040;-71
2022/07/23 02:58:17;;;;;;;;;;;;;;;23.63;77.46;97142.27;601779;235;65905;-72
2022/07/23 03:00:44;;;;;;;;;;;;;;;23.63;77.37;97137.69;601695;235;66344;-72
2022/07/23 03:03:13;;;;;;;;;;;;;;;23.63;77.36;97143.05;601693;235;65232;-72
2022/07/23 03:05:42;;;;;;;;;;;;;;;23.63;77.40;97142.27;601712;235;67707;-73
2022/07/23 03:08:09;;;;;;;;;;;;;;;23.63;77.42;97144.94;601661;235;68768;-72
2022/07/23 03:10:38;;;;;;;;;;;;;;;23.63;77.44;97153.78;601762;235;64458;-73
2022/07/23 03:13:06;;;;;;;;;;;;;;;23.63;77.56;97150.31;601705;235;66753;-72
2022/07/23 03:15:33;;;;;;;;;;;;;;;23.61;77.48;97158.63;601696;235;68636;-73
2022/07/23 03:18:01;;;;;;;;;;;;;;;23.62;77.46;97156.73;601717;235;62897;-73
2022/07/23 03:20:29;;;;;;;;;;;;;;;23.62;77.48;97157.53;601715;235;69258;-72
2022/07/23 03:22:57;;;;;;;;;;;;;;;23.63;77.46;97161.84;601701;235;66551;-72
2022/07/23 03:25:25;;;;;;;;;;;;;;;23.62;77.53;97160.22;601751;235;63029;-72
2022/07/23 03:27:52;;;;;;;;;;;;;;;23.63;77.74;97169.88;601667;235;68768;-72
2022/07/23 03:30:20;;;;;;;;;;;;;;;23.62;77.63;97165.58;601700;235;66142;-72
2022/07/23 03:32:49;;;;;;;;;;;;;;;23.62;77.57;97167.47;601698;235;65699;-72
2022/07/23 03:35:16;;;;;;;;;;;;;;;23.62;77.64;97168.27;601704;235;68771;-72
2022/07/23 03:37:45;;;;;;;;;;;;;;;23.61;77.75;97177.41;601705;234;50288;-72
2022/07/23 03:40:13;;;;;;;;;;;;;;;23.61;77.59;97169.36;601731;235;65085;-72
2022/07/23 03:42:42;;;;;;;;;;;;;;;23.61;77.70;97169.36;601714;235;66299;-72
2022/07/23 03:45:10;;;;;;;;;;;;;;;23.61;77.63;97180.09;601713;235;68399;-72
2022/07/23 03:47:38;;;;;;;;;;;;;;;23.62;77.71;97172.84;601693;235;65004;-72
2022/07/23 03:50:06;;;;;;;;;;;;;;;23.61;77.73;97166.67;601757;235;68794;-72
2022/07/23 03:52:34;;;;;;;;;;;;;;;23.61;77.71;97171.25;601676;235;68859;-72
2022/07/23 03:55:02;;;;;;;;;;;;;;;23.62;77.73;97172.84;601728;235;63059;-72
2022/07/23 03:57:31;;;;;;;;;;;;;;;23.62;77.81;97172.84;603453;235;68805;-72
2022/07/23 03:59:58;;;;;;;;;;;;;;;23.62;77.72;97178.20;603441;235;69099;-73
2022/07/23 04:02:26;;;;;;;;;;;;;;;23.61;77.68;97174.72;603441;235;65911;-72
2022/07/23 04:04:54;;;;;;;;;;;;;;;23.61;77.64;97172.05;603443;235;66319;-72
2022/07/23 04:07:21;;;;;;;;;;;;;;;23.61;77.71;97173.93;603454;235;68824;-72
2022/07/23 04:09:49;;;;;;;;;;;;;;;23.61;77.74;97172.05;603449;235;65017;-72
2022/07/23 04:12:18;;;;;;;;;;;;;;;23.61;77.68;97176.61;603467;235;65808;-72
2022/07/23 04:14:46;;;;;;;;;;;;;;;23.61;77.80;97172.05;603396;235;66661;-72
2022/07/23 04:17:14;;;;;;;;;;;;;;;23.61;77.74;97180.09;603435;235;65036;-72
2022/07/23 04:19:43;;;;;;;;;;;;;;;23.61;77.70;97177.41;603426;234;66465;-72
2022/07/23 04:22:12;;;;;;;;;;;;;;;23.62;77.81;97179.00;603433;235;69312;-72
2022/07/23 04:24:40;;;;;;;;;;;;;;;23.61;77.81;97177.41;603438;235;62932;-72
2022/07/23 04:27:08;;;;;;;;;;;;;;;23.61;77.76;97171.25;603429;232;68924;-73
2022/07/23 04:29:36;;;;;;;;;;;;;;;23.61;77.76;97174.72;603449;235;67325;-72
2022/07/23 04:32:04;;;;;;;;;;;;;;;23.61;77.73;97173.93;603426;235;65140;-72
2022/07/23 04:34:31;;;;;;;;;;;;;;;23.61;77.80;97173.93;603447;235;68859;-72
2022/07/23 04:36:59;;;;;;;;;;;;;;;23.61;77.85;97174.72;603429;235;66195;-72
2022/07/23 04:39:27;;;;;;;;;;;;;;;23.61;77.83;97176.61;603436;235;64904;-73
2022/07/23 04:41:55;;;;;;;;;;;;;;;23.61;77.79;97177.41;603413;235;69209;-64
2022/07/23 04:44:23;;;;;;;;;;;;;;;23.61;77.81;97181.98;603417;235;68688;-64
2022/07/23 04:46:51;;;;;;;;;;;;;;;23.61;77.94;97177.41;603447;235;62775;-64
2022/07/23 04:49:19;;;;;;;;;;;;;;;23.61;77.91;97181.98;603438;235;68911;-64
2022/07/23 04:51:47;;;;;;;;;;;;;;;23.61;77.90;97181.98;603423;235;68551;-64
2022/07/23 04:54:17;;;;;;;;;;;;;;;23.60;77.99;97178.50;603441;235;62716;-65
2022/07/23 04:56:44;;;;;;;;;;;;;;;23.62;78.00;97184.36;602560;233;66319;-65
2022/07/23 04:59:12;;;;;;;;;;;;;;;23.60;77.98;97178.50;602254;235;66119;-72
2022/07/23 05:01:41;;;;;;;;;;;;;;;23.61;78.06;97182.77;602228;235;65776;-73
2022/07/23 05:04:09;;;;;;;;;;;;;;;23.60;78.01;97185.73;602233;235;69278;-72
2022/07/23 05:06:37;;;;;;;;;;;;;;;23.61;78.05;97188.14;601993;235;69259;-72
2022/07/23 05:09:05;;;;;;;;;;;;;;;23.61;78.07;97185.45;602269;235;61883;-72
2022/07/23 05:11:32;;;;;;;;;;;;;;;23.61;77.99;97187.34;602126;235;66335;-73
2022/07/23 05:13:59;;;;;;;;;;;;;;;;;;601333;235;68800;-73
2022/07/23 05:16:26;;;;;;;;;;;;;;;23.61;78.24;97185.45;595356;238;62964;-72
2022/07/23 05:18:55;;;;;;;;;;;;;;;23.60;78.16;97191.92;599856;236;67324;-72
2022/07/23 05:21:23;;;;;;;;;;;;;;;23.60;78.04;97181.19;602288;235;66626;-72
2022/07/23 05:23:50;;;;;;;;;;;;;;;23.60;78.00;97181.19;602290;235;65084;-73
2022/07/23 05:26:18;;;;;;;;;;;;;;;23.60;78.00;97194.60;599938;236;68522;-72
2022/07/23 05:28:46;;;;;;;;;;;;;;;23.61;78.07;97190.03;602200;235;66566;-73
2022/07/23 05:31:13;;;;;;;;;;;;;;;23.60;78.24;97181.19;602291;235;63040;-65
2022/07/23 05:33:41;;;;;;;;;;;;;;;23.60;78.12;97185.73;599922;236;69414;-65
2022/07/23 05:36:09;;;;;;;;;;;;;;;23.60;78.19;97186.55;594160;238;68735;-64
2022/07/23 05:38:40;;;;;;;;;;;;;;;23.60;78.25;97189.23;594040;238;43598;-64
2022/07/23 05:41:07;;;;;;;;;;;;;;;23.60;78.19;97191.09;595691;238;68814;-64
2022/07/23 05:43:35;;;;;;;;;;;;;;;23.60;78.32;97189.23;602300;235;66124;-64
2022/07/23 05:46:04;;;;;;;;;;;;;;;23.59;78.24;97190.30;599927;236;42663;-65
2022/07/23 05:48:32;;;;;;;;;;;;;;;23.60;78.34;97183.87;594176;238;69335;-64
2022/07/23 05:51:06;;;;;;;;;;;;;;;23.60;78.36;97180.36;593827;238;51077;-64
2022/07/23 05:53:33;;;;;;;;;;;;;;;23.59;78.22;97182.25;594166;238;65105;-64
2022/07/23 05:56:02;;;;;;;;;;;;;;;23.60;78.18;97186.55;593568;238;49298;-65
2022/07/23 05:58:30;;;;;;;;;;;;;;;23.59;78.39;97190.30;595369;238;68534;-64
2022/07/23 06:00:58;;;;;;;;;;;;;;;23.59;78.25;97182.25;595317;238;62536;-65
2022/07/23 06:03:27;;;;;;;;;;;;;;;23.60;78.30;97191.09;595305;238;69331;-64
2022/07/23 06:05:57;;;;;;;;;;;;;;;23.60;78.28;97185.73;595306;238;66259;-64
2022/07/23 06:08:24;;;;;;;;;;;;;;;23.60;78.41;97185.73;595313;238;64976;-64
2022/07/23 06:10:53;;;;;;;;;;;;;;;23.60;78.36;97185.73;595389;238;69192;-64
2022/07/23 06:13:20;;;;;;;;;;;;;;;23.60;78.38;97191.92;595368;238;67959;-64
2022/07/23 06:15:48;;;;;;;;;;;;;;;23.58;77.86;97187.91;595328;238;63824;-65
2022/07/23 06:18:16;;;;;;;;;;;;;;;23.58;78.10;97180.66;595334;238;68500;-64
2022/07/23 06:20:43;;;;;;;;;;;;;;;23.60;77.60;97185.73;595311;238;68687;-65
2022/07/23 06:23:12;;;;;;;;;;;;;;;23.59;77.69;97182.25;595372;238;65882;-64
2022/07/23 06:25:40;;;;;;;;;;;;;;;23.60;77.72;97185.73;595392;238;68409;-64
2022/07/23 06:28:07;;;;;;;;;;;;;;;23.61;78.08;97185.45;595303;238;65914;-64
2022/07/23 06:30:35;;;;;;;;;;;;;;;23.61;78.09;97181.98;595321;238;65240;-65
2022/07/23 06:33:03;;;;;;;;;;;;;;;23.63;77.99;97185.19;595296;238;65849;-64
2022/07/23 06:35:31;;;;;;;;;;;;;;;23.63;77.99;97180.61;595316;238;68859;-64
2022/07/23 06:37:59;;;;;;;;;;;;;;;23.63;78.09;97175.25;595373;238;62757;-64
2022/07/23 06:40:26;;;;;;;;;;;;;;;23.63;78.28;97175.25;595299;238;66333;-64
2022/07/23 06:42:54;;;;;;;;;;;;;;;23.64;78.18;97179.52;595299;238;68892;-64
2022/07/23 06:45:23;;;;;;;;;;;;;;;23.65;78.24;97173.09;595308;238;65642;-64
2022/07/23 06:47:50;;;;;;;;;;;;;;;23.65;78.30;97178.45;595308;238;68869;-64
2022/07/23 06:50:19;;;;;;;;;;;;;;;23.65;78.35;97175.77;595371;238;69181;-64
2022/07/23 06:52:46;;;;;;;;;;;;;;;23.65;78.37;97178.45;595316;238;65096;-64
2022/07/23 06:55:15;;;;;;;;;;;;;;;23.65;78.37;97178.45;594959;238;69599;-64
2022/07/23 06:57:45;;;;;;;;;;;;;;;23.64;78.23;97166.11;593104;239;47311;-65
2022/07/23 07:00:13;;;;;;;;;;;;;;;23.64;78.17;97166.11;593058;239;62658;-65
2022/07/23 07:02:42;;;;;;;;;;;;;;;23.65;78.44;97167.72;593141;239;68746;-64
2022/07/23 07:05:10;;;;;;;;;;;;;;;23.65;78.39;97166.90;593060;239;67415;-64
2022/07/23 07:07:38;;;;;;;;;;;;;;;23.65;78.59;97165.04;593037;239;62834;-64
2022/07/23 07:10:06;;;;;;;;;;;;;;;23.65;78.48;97156.99;593072;239;68655;-64
2022/07/23 07:12:34;;;;;;;;;;;;;;;23.66;78.76;97157.78;593056;239;68770;-64
2022/07/23 07:15:01;;;;;;;;;;;;;;;23.66;78.54;97158.58;593065;239;64999;-64
2022/07/23 07:17:29;;;;;;;;;;;;;;;23.65;78.55;97154.31;593114;239;68925;-65
2022/07/23 07:19:56;;;;;;;;;;;;;;;23.66;78.31;97152.42;593046;239;68558;-64
2022/07/23 07:22:24;;;;;;;;;;;;;;;23.66;78.30;97163.95;593051;239;65061;-64
2022/07/23 07:24:51;;;;;;;;;;;;;;;23.66;78.45;97152.42;593051;239;68602;-73
2022/07/23 07:27:19;;;;;;;;;;;;;;;23.67;78.52;97159.38;593104;239;68386;-73
2022/07/23 07:29:46;;;;;;;;;;;;;;;23.66;78.25;97153.21;593107;239;64878;-73
2022/07/23 07:32:14;;;;;;;;;;;;;;;23.67;78.26;97149.44;593009;239;68686;-73
2022/07/23 07:34:41;;;;;;;;;;;;;;;23.67;78.25;97151.33;592992;239;66892;-72
2022/07/23 07:37:09;;;;;;;;;;;;;;;23.67;78.41;97151.33;593086;239;62764;-72
2022/07/23 07:39:36;;;;;;;;;;;;;;;23.67;78.35;97149.44;593049;239;68934;-63
2022/07/23 07:42:04;;;;;;;;;;;;;;;23.66;78.20;97147.84;593123;239;66431;-64
2022/07/23 07:44:31;;;;;;;;;;;;;;;23.68;78.36;97152.91;593026;239;65255;-63
2022/07/23 07:46:59;;;;;;;;;;;;;;;23.68;78.34;97150.23;593029;239;68726;-64
2022/07/23 07:49:26;;;;;;;;;;;;;;;23.68;78.35;97147.55;593031;239;68465;-64
2022/07/23 07:51:54;;;;;;;;;;;;;;;23.68;78.26;97145.69;593035;239;62592;-64
2022/07/23 07:54:21;;;;;;;;;;;;;;;23.68;78.26;97140.32;593087;239;66124;-64
2022/07/23 07:56:49;;;;;;;;;;;;;;;23.69;78.18;97141.11;594733;238;69548;-72
2022/07/23 07:59:16;;;;;;;;;;;;;;;23.69;78.39;97136.54;595270;238;64996;-72
2022/07/23 08:01:44;;;;;;;;;;;;;;;23.69;78.41;97131.17;595313;238;69009;-72
2022/07/23 08:04:11;;;;;;;;;;;;;;;23.68;78.36;97132.27;595267;238;68614;-72
2022/07/23 08:06:41;;;;;;;;;;;;;;;23.68;78.27;97129.59;595359;238;62841;-64
2022/07/23 08:09:08;;;;;;;;;;;;;;;23.69;78.34;97131.17;595312;238;68905;-64
2022/07/23 08:11:36;;;;;;;;;;;;;;;23.69;78.41;97128.49;595293;238;66316;-64
2022/07/23 08:14:04;;;;;;;;;;;;;;;23.70;78.41;97130.08;595298;238;65112;-64
2022/07/23 08:16:31;;;;;;;;;;;;;;;23.70;78.43;97123.92;595308;238;68673;-64
2022/07/23 08:19:01;;;;;;;;;;;;;;;23.70;78.25;97127.39;595269;238;68521;-64
2022/07/23 08:21:28;;;;;;;;;;;;;;;23.70;78.38;97126.60;595333;238;62678;-63
2022/07/23 08:23:56;;;;;;;;;;;;;;;23.70;78.41;97122.03;595289;238;66436;-64
2022/07/23 08:26:23;;;;;;;;;;;;;;;23.70;78.36;97122.03;595290;238;68281;-72
2022/07/23 08:28:51;;;;;;;;;;;;;;;23.69;78.38;97120.44;595313;238;65249;-72
2022/07/23 08:31:18;;;;;;;;;;;;;;;23.70;78.32;97110.50;595301;238;68672;-72
2022/07/23 08:33:46;;;;;;;;;;;;;;;23.70;78.44;97116.66;595345;238;66623;-72
2022/07/23 08:36:13;;;;;;;;;;;;;;;23.70;78.40;97115.88;595303;238;62757;-72
2022/07/23 08:38:43;;;;;;;;;;;;;;;23.70;78.28;97116.66;595337;238;68755;-72
2022/07/23 08:41:11;;;;;;;;;;;;;;;23.70;78.27;97119.34;595316;238;66163;-72
2022/07/23 08:43:40;;;;;;;;;;;;;;;23.70;78.35;97115.88;595283;238;65068;-72
2022/07/23 08:46:07;;;;;;;;;;;;;;;23.71;78.26;97112.16;595328;238;68824;-72
2022/07/23 08:48:37;;;;;;;;;;;;;;;23.72;78.40;97119.10;595140;238;46053;-72
2022/07/23 08:51:05;;;;;;;;;;;;;;;23.72;78.28;97118.31;595295;238;65060;-72
2022/07/23 08:53:35;;;;;;;;;;;;;;;23.72;78.26;97112.94;595316;238;66314;-72
2022/07/23 08:56:05;;;;;;;;;;;;;;;23.72;78.28;97118.31;594214;238;65784;-72
2022/07/23 08:58:32;;;;;;;;;;;;;;;23.72;78.28;97118.31;595167;238;62726;-72
2022/07/23 09:01:00;;;;;;;;;;;;;;;23.72;78.26;97119.10;601779;235;68923;-72
2022/07/23 09:03:29;;;;;;;;;;;;;;;23.72;78.39;97115.62;598198;237;68721;-72
2022/07/23 09:05:57;;;;;;;;;;;;;;;23.72;78.22;97110.27;601726;235;62975;-72
2022/07/23 09:08:26;;;;;;;;;;;;;;;23.72;78.21;97116.42;601756;235;66118;-72
2022/07/23 09:10:55;;;;;;;;;;;;;;;23.73;78.24;97125.27;598176;237;67175;-72
2022/07/23 09:13:27;;;;;;;;;;;;;;;23.73;78.14;97119.90;601726;235;65064;-63
2022/07/23 09:15:56;;;;;;;;;;;;;;;23.73;78.34;97126.06;600921;234;68902;-64
2022/07/23 09:18:30;;;;;;;;;;;;;;;23.73;78.24;97117.21;601756;235;66424;-64
2022/07/23 09:21:14;;;;;;;;;;;;;;;23.74;78.26;97121.52;601703;235;64699;-63
2022/07/23 09:23:49;;;;;;;;;;;;;;;23.73;78.40;97109.95;601738;235;68813;-64
2022/07/23 09:26:22;;;;;;;;;;;;;;;23.74;78.21;97116.94;601736;235;68677;-64
2022/07/23 09:29:08;;;;;;;;;;;;;;;23.74;78.24;97110.78;601768;235;62761;-63
2022/07/23 09:31:37;;;;;;;;;;;;;;;23.73;78.13;97109.95;601749;235;68735;-64
2022/07/23 09:34:09;;;;;;;;;;;;;;;23.73;78.15;97109.95;600470;235;66444;-64
2022/07/23 09:36:37;;;;;;;;;;;;;;;23.74;78.16;97113.47;601711;235;62755;-64
2022/07/23 09:39:04;;;;;;;;;;;;;;;23.73;78.13;97103.80;601718;235;68938;-63
2022/07/23 09:41:44;;;;;;;;;;;;;;;23.74;78.25;97105.41;601584;234;66694;-63
2022/07/23 09:44:16;;;;;;;;;;;;;;;23.73;78.19;97107.27;601709;235;65732;-64
2022/07/23 09:46:45;;;;;;;;;;;;;;;23.74;78.07;97105.41;601797;235;66491;-72
2022/07/23 09:49:14;;;;;;;;;;;;;;;23.74;78.20;97102.73;601733;235;68665;-72
2022/07/23 09:51:46;;;;;;;;;;;;;;;23.74;78.19;97103.52;601684;234;64899;-73
2022/07/23 09:54:15;;;;;;;;;;;;;;;23.75;78.13;97101.63;601714;235;68717;-71
2022/07/23 09:56:46;;;;;;;;;;;;;;;23.75;78.08;97104.32;601257;234;68319;-72
2022/07/23 09:59:17;;;;;;;;;;;;;;;23.75;78.12;97104.32;601796;235;64966;-72
2022/07/23 10:01:46;;;;;;;;;;;;;;;23.75;78.15;97113.16;601750;235;68745;-73
2022/07/23 10:04:14;;;;;;;;;;;;;;;23.75;78.12;97104.32;601701;235;66597;-73
2022/07/23 10:07:02;;;;;;;;;;;;;;;23.75;78.10;97090.91;598166;235;44985;-73
2022/07/23 10:09:50;;;;;;;;;;;;;;;23.75;78.18;97097.06;600285;235;43259;-72
2022/07/23 10:12:33;;;;;;;;;;;;;;;23.76;78.12;97100.54;601554;234;46918;-72
2022/07/23 10:14:57;;;;;;;;;;;;;;;23.75;78.05;97102.43;601622;234;65825;-73
2022/07/23 10:17:25;;;;;;;;;;;;;;;23.76;78.14;97092.48;601748;235;70102;-72
2022/07/23 10:19:52;;;;;;;;;;;;;;;23.75;77.97;97088.22;601735;235;66008;-72
2022/07/23 10:22:21;;;;;;;;;;;;;;;23.76;78.12;97081.75;601774;235;64924;-73
2022/07/23 10:25:07;;;;;;;;;;;;;;;23.76;77.93;97079.86;601750;235;68264;-72
2022/07/23 10:27:45;;;;;;;;;;;;;;;23.76;77.87;97085.23;601720;235;68346;-66
2022/07/23 10:30:15;;;;;;;;;;;;;;;23.76;78.00;97079.86;601674;234;62752;-64
2022/07/23 10:32:56;;;;;;;;;;;;;;;23.77;78.06;97080.69;601699;234;69004;-64
2022/07/23 10:35:42;;;;;;;;;;;;;;;23.76;77.90;97077.19;601782;235;68321;-64
2022/07/23 10:38:23;;;;;;;;;;;;;;;23.77;77.96;97078.00;601691;235;65334;-64
2022/07/23 10:40:55;;;;;;;;;;;;;;;23.77;77.90;97072.64;601718;235;69267;-64
2022/07/23 10:43:23;;;;;;;;;;;;;;;23.77;77.79;97064.59;601750;235;65999;-64
2022/07/23 10:45:51;;;;;;;;;;;;;;;23.77;77.65;97073.43;601723;235;63156;-64
2022/07/23 10:48:20;;;;;;;;;;;;;;;23.77;77.80;97062.70;601745;235;66446;-64
2022/07/23 10:51:07;;;;;;;;;;;;;;;23.78;77.63;97058.13;601758;235;68809;-64
2022/07/23 10:53:55;;;;;;;;;;;;;;;23.78;77.69;97058.91;601743;235;61252;-72
2022/07/23 10:56:40;;;;;;;;;;;;;;;23.78;77.65;97061.60;601659;235;68734;-72
2022/07/23 10:59:08;;;;;;;;;;;;;;;23.79;77.74;97054.34;601707;235;68578;-72
2022/07/23 11:01:36;;;;;;;;;;;;;;;23.78;77.74;97053.55;601722;235;65164;-72
2022/07/23 11:04:07;;;;;;;;;;;;;;;23.79;77.78;97054.34;601736;235;66268;-72
2022/07/23 11:06:51;;;;;;;;;;;;;;;23.79;77.73;97046.30;601723;235;69555;-72
2022/07/23 11:09:30;;;;;;;;;;;;;;;23.79;77.67;97046.30;601648;234;65212;-73
2022/07/23 11:12:16;;;;;;;;;;;;;;;23.79;77.71;97040.92;601778;235;68576;-72
2022/07/23 11:15:00;;;;;;;;;;;;;;;23.78;77.80;97033.97;601749;235;68533;-72
2022/07/23 11:17:28;;;;;;;;;;;;;;;23.79;77.77;97035.56;601701;235;65296;-73
2022/07/23 11:20:13;;;;;;;;;;;;;;;23.79;77.70;97016.77;601696;235;66248;-72
2022/07/23 11:22:42;;;;;;;;;;;;;;;23.80;77.64;97031.80;601708;235;68894;-72
2022/07/23 11:25:10;;;;;;;;;;;;;;;23.79;77.82;97036.38;601649;234;65326;-72
2022/07/23 11:27:41;;;;;;;;;;;;;;;23.79;77.87;97033.70;601765;235;68672;-72
2022/07/23 11:30:10;;;;;;;;;;;;;;;23.80;77.66;97026.44;601630;235;68719;-73
2022/07/23 11:32:42;;;;;;;;;;;;;;;23.80;77.64;97034.49;601643;234;63870;-72
2022/07/23 11:35:20;;;;;;;;;;;;;;;23.80;77.67;97023.75;601712;235;68744;-73
2022/07/23 11:37:48;;;;;;;;;;;;;;;23.80;77.79;97024.55;601707;235;68519;-72
2022/07/23 11:40:17;;;;;;;;;;;;;;;23.80;77.73;97024.55;601748;235;64981;-72
2022/07/23 11:42:55;;;;;;;;;;;;;;;23.81;77.59;97022.66;601701;235;69430;-72
2022/07/23 11:45:23;;;;;;;;;;;;;;;23.81;77.58;97025.34;601712;235;68457;-71
2022/07/23 11:47:51;;;;;;;;;;;;;;;23.81;77.65;97020.77;601707;235;62755;-64
2022/07/23 11:50:21;;;;;;;;;;;;;;;23.81;77.51;97023.45;601557;235;66501;-64
2022/07/23 11:52:49;;;;;;;;;;;;;;;23.82;77.55;97021.59;601673;234;74653;-64
2022/07/23 11:55:19;;;;;;;;;;;;;;;23.82;77.50;97010.86;601872;234;64894;-63
2022/07/23 11:57:48;;;;;;;;;;;;;;;23.82;77.50;97008.97;603263;234;49925;-63
2022/07/23 12:00:17;;;;;;;;;;;;;;;23.81;77.68;97004.66;603425;235;68533;-64
2022/07/23 12:02:46;;;;;;;;;;;;;;;23.82;77.53;97010.86;603440;235;62763;-64
2022/07/23 12:05:18;;;;;;;;;;;;;;;23.82;77.66;97000.13;603481;235;68647;-63
2022/07/23 12:07:51;;;;;;;;;;;;;;;23.83;77.60;97013.23;603444;235;68461;-64
2022/07/23 12:10:24;;;;;;;;;;;;;;;23.83;77.65;97015.13;603499;233;46345;-64
2022/07/23 12:12:59;;;;;;;;;;;;;;;23.82;77.53;97019.70;603207;233;47423;-64
2022/07/23 12:15:32;;;;;;;;;;;;;;;23.83;77.70;97015.13;603117;232;68644;-64
2022/07/23 12:18:07;;;;;;;;;;;;;;;23.82;77.72;97014.33;603386;233;62665;-64
2022/07/23 12:20:43;;;;;;;;;;;;;;;23.83;77.69;97007.87;603323;234;48608;-64
2022/07/23 12:23:13;;;;;;;;;;;;;;;23.83;77.65;97004.39;603405;234;68750;-64
2022/07/23 12:25:43;;;;;;;;;;;;;;;23.83;77.67;96999.02;603488;235;65145;-64
2022/07/23 12:28:32;;;;;;;;;;;;;;;23.83;77.53;96996.34;603359;235;66657;-64
2022/07/23 12:31:03;;;;;;;;;;;;;;;23.83;77.65;96989.08;602881;235;46708;-64
2022/07/23 12:33:35;;;;;;;;;;;;;;;23.83;77.64;96988.29;603438;235;62802;-64
2022/07/23 12:36:04;;;;;;;;;;;;;;;23.82;77.53;96990.18;603422;235;68964;-64
2022/07/23 12:38:45;;;;;;;;;;;;;;;23.83;77.60;96989.08;603405;235;66664;-64
2022/07/23 12:41:13;;;;;;;;;;;;;;;23.83;77.67;96983.71;603485;235;66064;-64
2022/07/23 12:43:42;;;;;;;;;;;;;;;23.83;77.58;96986.40;603433;234;68890;-64
2022/07/23 12:46:19;;;;;;;;;;;;;;;23.84;77.47;96976.45;603438;234;68629;-64
2022/07/23 12:48:50;;;;;;;;;;;;;;;23.84;77.66;96976.45;603268;233;64907;-64
2022/07/23 12:51:22;;;;;;;;;;;;;;;23.84;77.58;96976.45;603418;235;68720;-64
2022/07/23 12:53:51;;;;;;;;;;;;;;;23.84;77.50;96979.14;603423;235;68533;-64
2022/07/23 12:56:19;;;;;;;;;;;;;;;23.84;77.57;96976.45;602814;235;64942;-64
2022/07/23 12:58:51;;;;;;;;;;;;;;;23.84;77.63;96977.25;602234;235;66371;-64